La Porte, TX (77572)

3:48 PM CST on December 27, 2014 (GMT -0600)
Houston Yacht Club | Change Station
CLOSE
Current Station
Personal Weather Station
Location: Shoreacres, TX
Elevation: 0 ft
Nearby Weather Stations

Elev 0 ft 29.62 °N, 95.00 °W | Updated 3 minutes ago

Rain
Rain
58.8 °F
Feels Like 58.8 °F
N
16.0
Wind Variable Wind from NW
Gusts 16.0 mph

Today
High -- | Low -- °F
--% Chance of Precip.
Yesterday
High -- | Low -- °F
Precip. -- in
7:13 AM 5:28 PM
Waxing Crescent, 40% visible
Pressure 29.99 in
Visibility 5.0 miles
Clouds Overcast 800 ft
Dew Point 57 °F
Humidity 94%
Rainfall 0.07 in
Snow Depth Not available.
UV 1 out of 12
Pollen 2.70 out of 12
Air Quality Not available.
Flu Activity Not available.
METAR KEFD 272050Z 31007KT 5SM RA OVC008 18/16 A2999

More Conditions Fewer Conditions

Pressure 29.99 in
Visibility 5.0 miles
Clouds Overcast 800 ft
Dew Point 57 °F
Humidity 94%
Rainfall 0.07 in
Snow Depth Not available.
UV 1 out of 12
Pollen 2.70 out of 12
Air Quality Not available.
Flu Activity Not available.
METAR KEFD 272050Z 31007KT 5SM RA OVC008 18/16 A2999

More Conditions Fewer Conditions

10-Day Weather Forecast

Almanac

Astronomy

Dec. 27, 2014 Rise Set
Actual Time
Civil Twilight
Nautical Twilight
Astronomical Twilight
Moon
Length of Visible Light
Length of Day
Tomorrow will be .
, % of the Moon is Illuminated

Today's Extremes

State Highs State Lows

Community

WunderPhotos

Upload Photos

1,781,073 photos uploaded!

WunderBlogs® & News

Nearby

Air Quality

  Air Quality AQ Index Pollutant
Not available.

Snow Depth

Station Depth Elevation

Earthquake Activity

City Distance Mag. Time & Date
Minimum magnitude displayed is 2.5.

Coastal Water Temperatures

Place Temperature

Nearby Weather Stations